createdAt,value
2022-09-25T00:01:06.651Z,100.00
2022-09-25T00:03:34.631Z,100.00
2022-09-25T00:06:04.824Z,100.00
2022-09-25T00:08:33.087Z,100.00
2022-09-25T00:11:00.752Z,100.00
2022-09-25T00:13:28.553Z,100.00
2022-09-25T00:15:57.926Z,100.00
2022-09-25T00:18:45.229Z,100.00
2022-09-25T00:21:14.636Z,100.00
2022-09-25T00:23:44.670Z,100.00
2022-09-25T00:26:14.259Z,100.00
2022-09-25T00:28:43.048Z,100.00
2022-09-25T00:31:12.561Z,100.00
2022-09-25T00:33:41.545Z,100.00
2022-09-25T00:36:11.585Z,100.00
2022-09-25T00:38:39.353Z,100.00
2022-09-25T00:41:08.538Z,100.00
2022-09-25T00:43:40.376Z,100.00
2022-09-25T00:46:12.301Z,100.00
2022-09-25T00:48:49.577Z,100.00
2022-09-25T00:51:20.350Z,100.00
2022-09-25T00:53:48.679Z,100.00
2022-09-25T00:56:18.617Z,100.00
2022-09-25T00:58:46.321Z,100.00
2022-09-25T01:01:14.759Z,100.00
2022-09-25T01:03:44.505Z,100.00
2022-09-25T01:06:13.906Z,100.00
2022-09-25T01:08:43.063Z,100.00
2022-09-25T01:11:11.026Z,100.00
2022-09-25T01:13:38.887Z,100.00
2022-09-25T01:16:12.710Z,100.00
2022-09-25T01:18:52.575Z,100.00
2022-09-25T01:21:33.735Z,100.00
2022-09-25T01:24:50.340Z,100.00
2022-09-25T01:27:33.862Z,100.00
2022-09-25T01:30:09.890Z,100.00
2022-09-25T01:32:52.250Z,100.00
2022-09-25T01:35:31.655Z,100.00
2022-09-25T01:38:06.182Z,100.00
2022-09-25T01:40:40.936Z,100.00
2022-09-25T01:43:13.767Z,100.00
2022-09-25T01:45:49.588Z,100.00
2022-09-25T01:48:20.678Z,100.00
2022-09-25T01:50:51.925Z,100.00
2022-09-25T01:53:24.411Z,100.00
2022-09-25T01:55:57.459Z,100.00
2022-09-25T01:58:29.750Z,100.00
2022-09-25T02:01:03.810Z,100.00
2022-09-25T02:03:36.042Z,100.00
2022-09-25T02:06:07.714Z,100.00
2022-09-25T02:08:40.517Z,100.00
2022-09-25T02:11:09.869Z,100.00
2022-09-25T02:13:44.602Z,100.00
2022-09-25T02:16:18.380Z,100.00
2022-09-25T02:19:05.511Z,100.00
2022-09-25T02:21:43.596Z,100.00
2022-09-25T02:24:20.672Z,100.00
2022-09-25T02:26:49.556Z,100.00
2022-09-25T02:29:17.510Z,100.00
2022-09-25T02:31:50.986Z,100.00
2022-09-25T02:34:18.705Z,100.00
2022-09-25T02:36:46.358Z,100.00
2022-09-25T02:39:16.795Z,100.00
2022-09-25T02:42:04.799Z,100.00
2022-09-25T02:44:43.891Z,100.00
2022-09-25T02:47:25.115Z,100.00
2022-09-25T02:50:02.575Z,100.00
2022-09-25T02:52:36.036Z,100.00
2022-09-25T02:55:08.508Z,100.00
2022-09-25T02:57:43.255Z,100.00
2022-09-25T03:00:12.834Z,100.00
2022-09-25T03:02:49.606Z,100.00
2022-09-25T03:05:19.313Z,100.00
2022-09-25T03:08:04.938Z,99.75
2022-09-25T03:10:36.518Z,99.68
2022-09-25T03:13:15.139Z,100.00
2022-09-25T03:15:46.462Z,100.00
2022-09-25T03:18:16.516Z,100.00
2022-09-25T03:20:44.074Z,99.98
2022-09-25T03:23:11.988Z,99.93
2022-09-25T03:25:39.958Z,100.00
2022-09-25T03:28:11.388Z,100.00
2022-09-25T03:30:40.954Z,100.00
2022-09-25T03:33:10.307Z,100.00
2022-09-25T03:35:39.767Z,100.00
2022-09-25T03:38:08.371Z,99.68
2022-09-25T03:40:36.038Z,99.38
2022-09-25T03:45:30.807Z,99.80
2022-09-25T03:47:58.401Z,100.00
2022-09-25T03:50:26.030Z,99.99
2022-09-25T03:52:54.966Z,100.00
2022-09-25T03:55:22.512Z,99.13
2022-09-25T03:57:50.340Z,99.33
2022-09-25T04:00:18.035Z,99.72
2022-09-25T04:02:45.698Z,99.81
2022-09-25T04:05:13.404Z,100.00
2022-09-25T04:07:41.173Z,99.66
2022-09-25T04:10:10.666Z,99.86
2022-09-25T04:12:38.326Z,99.32
2022-09-25T04:15:08.860Z,99.89
2022-09-25T04:17:36.609Z,99.76
2022-09-25T04:20:04.705Z,100.00
2022-09-25T04:22:32.482Z,100.00
2022-09-25T04:25:00.268Z,99.99
2022-09-25T04:27:29.185Z,99.68
2022-09-25T04:29:57.178Z,99.86
2022-09-25T04:32:54.331Z,100.00
2022-09-25T04:35:21.909Z,100.00
2022-09-25T04:37:49.471Z,100.00
2022-09-25T04:40:17.301Z,100.00
2022-09-25T04:42:46.432Z,100.00
2022-09-25T04:45:14.693Z,100.00
2022-09-25T04:47:42.410Z,100.00
2022-09-25T04:50:10.403Z,100.00
2022-09-25T04:52:38.562Z,100.00
2022-09-25T04:55:09.074Z,100.00
2022-09-25T04:57:57.717Z,100.00
2022-09-25T05:00:28.051Z,100.00
2022-09-25T05:02:56.097Z,100.00
2022-09-25T05:05:30.449Z,100.00
2022-09-25T05:07:59.803Z,100.00
2022-09-25T05:10:29.144Z,100.00
2022-09-25T05:12:58.178Z,100.00
2022-09-25T05:15:28.944Z,100.00
2022-09-25T05:18:03.844Z,100.00
2022-09-25T05:20:31.406Z,99.88
2022-09-25T05:23:00.018Z,99.88
2022-09-25T05:25:28.622Z,99.63
2022-09-25T05:27:59.314Z,100.00
2022-09-25T05:30:30.680Z,100.00
2022-09-25T05:32:59.283Z,100.00
2022-09-25T05:35:28.788Z,100.00
2022-09-25T05:37:56.883Z,100.00
2022-09-25T05:40:25.104Z,100.00
2022-09-25T05:42:53.487Z,99.57
2022-09-25T05:45:23.062Z,99.17
2022-09-25T05:48:01.174Z,99.57
2022-09-25T05:50:29.138Z,99.07
2022-09-25T05:52:57.829Z,98.77
2022-09-25T05:55:27.571Z,97.60
2022-09-25T05:57:55.162Z,98.58
2022-09-25T06:00:22.761Z,98.44
2022-09-25T06:02:54.205Z,98.70
2022-09-25T06:05:21.807Z,98.19
2022-09-25T06:07:53.509Z,98.03
2022-09-25T06:10:21.196Z,98.88
2022-09-25T06:12:48.707Z,99.03
2022-09-25T06:15:16.338Z,98.89
2022-09-25T06:17:43.996Z,98.69
2022-09-25T06:20:16.161Z,98.87
2022-09-25T06:22:44.840Z,98.65
2022-09-25T06:25:12.561Z,98.09
2022-09-25T06:27:40.518Z,97.39
2022-09-25T06:30:10.952Z,97.76
2022-09-25T06:32:41.247Z,98.16
2022-09-25T06:35:10.063Z,97.54
2022-09-25T06:37:38.946Z,97.53
2022-09-25T06:40:08.502Z,97.84
2022-09-25T06:42:36.239Z,98.14
2022-09-25T06:45:04.209Z,98.03
2022-09-25T06:47:31.815Z,97.55
2022-09-25T06:50:00.222Z,97.27
2022-09-25T06:52:27.791Z,97.72
2022-09-25T06:54:56.774Z,98.31
2022-09-25T06:57:24.451Z,98.79
2022-09-25T06:59:52.010Z,98.30
2022-09-25T07:02:45.555Z,98.26
2022-09-25T07:05:13.764Z,97.98
2022-09-25T07:07:41.325Z,98.25
2022-09-25T07:10:10.630Z,99.05
2022-09-25T07:12:38.480Z,98.52
2022-09-25T07:15:06.922Z,98.29
2022-09-25T07:17:34.952Z,97.76
2022-09-25T07:20:03.096Z,98.38
2022-09-25T07:22:30.770Z,98.06
2022-09-25T07:24:58.315Z,97.51
2022-09-25T07:27:27.252Z,97.17
2022-09-25T07:29:55.193Z,96.60
2022-09-25T07:32:23.029Z,95.28
2022-09-25T07:34:51.224Z,94.47
2022-09-25T07:37:19.188Z,95.30
2022-09-25T07:39:46.788Z,95.69
2022-09-25T07:42:14.420Z,94.37
2022-09-25T07:44:47.491Z,93.96
2022-09-25T07:47:17.039Z,94.65
2022-09-25T07:49:44.623Z,93.92
2022-09-25T07:52:13.381Z,93.97
2022-09-25T07:54:41.215Z,94.15
2022-09-25T07:57:08.788Z,94.28
2022-09-25T07:59:36.369Z,95.09
2022-09-25T08:02:05.424Z,95.43
2022-09-25T08:04:33.057Z,95.59
2022-09-25T08:07:01.460Z,95.64
2022-09-25T08:09:29.059Z,96.94
2022-09-25T08:11:56.625Z,96.68
2022-09-25T08:14:26.918Z,96.68
2022-09-25T08:16:55.903Z,96.22
2022-09-25T08:19:25.067Z,96.11
2022-09-25T08:21:52.631Z,94.95
2022-09-25T08:24:20.351Z,94.63
2022-09-25T08:26:48.001Z,93.76
2022-09-25T08:29:15.564Z,93.07
2022-09-25T08:31:43.591Z,93.13
2022-09-25T08:34:36.250Z,92.48
2022-09-25T08:37:00.290Z,91.92
2022-09-25T08:39:28.073Z,92.68
2022-09-25T08:41:56.977Z,92.36
2022-09-25T08:44:29.809Z,91.63
2022-09-25T08:47:19.851Z,92.55
2022-09-25T08:49:56.343Z,92.38
2022-09-25T08:52:25.439Z,92.37
2022-09-25T08:54:54.440Z,92.34
2022-09-25T08:57:37.323Z,90.28
2022-09-25T09:00:08.937Z,88.89
2022-09-25T09:02:42.704Z,88.79
2022-09-25T09:05:18.337Z,89.13
2022-09-25T09:07:53.697Z,89.65
2022-09-25T09:10:29.328Z,90.54
2022-09-25T09:13:01.786Z,89.34
2022-09-25T09:15:36.474Z,89.19
2022-09-25T09:18:17.703Z,86.58
2022-09-25T09:20:51.358Z,86.19
2022-09-25T09:23:22.174Z,86.42
2022-09-25T09:26:03.015Z,85.29
2022-09-25T09:29:04.966Z,85.73
2022-09-25T09:31:44.632Z,87.58
2022-09-25T09:34:53.194Z,88.41
2022-09-25T09:37:30.111Z,88.17
2022-09-25T09:40:19.490Z,88.88
2022-09-25T09:42:57.483Z,89.09
2022-09-25T09:45:33.148Z,88.81
2022-09-25T09:48:10.459Z,86.63
2022-09-25T09:50:46.156Z,85.04
2022-09-25T09:53:28.469Z,84.78
2022-09-25T09:56:04.086Z,84.15
2022-09-25T09:58:39.857Z,82.07
2022-09-25T10:01:29.110Z,81.45
2022-09-25T10:04:10.303Z,80.86
2022-09-25T10:06:43.319Z,81.82
2022-09-25T10:09:17.868Z,82.40
2022-09-25T10:11:52.263Z,82.40
2022-09-25T10:14:22.871Z,82.34
2022-09-25T10:16:52.137Z,81.84
2022-09-25T10:19:22.412Z,81.80
2022-09-25T10:21:54.734Z,82.75
2022-09-25T10:24:51.624Z,83.14
2022-09-25T10:27:28.372Z,83.04
2022-09-25T10:30:15.466Z,83.50
2022-09-25T10:32:45.872Z,83.52
2022-09-25T10:35:18.912Z,82.51
2022-09-25T10:37:49.961Z,82.03
2022-09-25T10:40:32.310Z,80.98
2022-09-25T10:43:07.208Z,80.97
2022-09-25T10:45:38.459Z,80.81
2022-09-25T10:48:49.422Z,81.63
2022-09-25T10:51:18.497Z,81.68
2022-09-25T10:53:47.325Z,81.73
2022-09-25T10:56:20.515Z,81.20
2022-09-25T10:58:54.908Z,82.03
2022-09-25T11:01:30.007Z,81.37
2022-09-25T11:03:59.070Z,80.94
2022-09-25T11:06:28.329Z,80.82
2022-09-25T11:09:04.631Z,81.28
2022-09-25T11:11:32.552Z,80.80
2022-09-25T11:14:04.567Z,80.54
2022-09-25T11:16:51.233Z,79.44
2022-09-25T11:19:29.894Z,78.37
2022-09-25T11:22:08.179Z,77.94
2022-09-25T11:25:01.044Z,77.04
2022-09-25T11:27:35.407Z,76.68
2022-09-25T11:30:07.571Z,76.16
2022-09-25T11:32:44.973Z,75.25
2022-09-25T11:35:42.358Z,75.94
2022-09-25T11:38:41.151Z,76.44
2022-09-25T11:41:16.405Z,75.56
2022-09-25T11:43:58.285Z,76.02
2022-09-25T11:46:35.455Z,76.78
2022-09-25T11:49:18.248Z,75.04
2022-09-25T11:52:17.556Z,73.79
2022-09-25T11:55:09.841Z,73.41
2022-09-25T11:57:49.475Z,73.10
2022-09-25T12:00:23.998Z,74.70
2022-09-25T12:03:13.207Z,75.69
2022-09-25T12:05:54.662Z,76.00
2022-09-25T12:08:41.337Z,75.95
2022-09-25T12:11:20.183Z,75.80
2022-09-25T12:13:57.256Z,75.73
2022-09-25T12:16:35.131Z,76.85
2022-09-25T12:19:19.296Z,77.78
2022-09-25T12:21:53.166Z,77.74
2022-09-25T12:24:33.800Z,77.67
2022-09-25T12:27:10.727Z,77.39
2022-09-25T12:30:08.503Z,76.88
2022-09-25T12:33:04.312Z,77.23
2022-09-25T12:35:44.057Z,76.90
2022-09-25T12:38:22.891Z,76.23
2022-09-25T12:40:55.352Z,76.91
2022-09-25T12:43:28.749Z,76.83
2022-09-25T12:46:03.443Z,76.49
2022-09-25T12:48:37.275Z,75.98
2022-09-25T12:51:14.257Z,76.58
2022-09-25T12:53:47.156Z,75.63
2022-09-25T12:56:18.889Z,75.77
2022-09-25T12:58:57.414Z,75.86
2022-09-25T13:01:29.521Z,74.74
2022-09-25T13:04:10.088Z,74.77
2022-09-25T13:06:47.214Z,74.33
2022-09-25T13:09:26.010Z,73.86
2022-09-25T13:11:59.515Z,74.58
2022-09-25T13:14:34.613Z,74.23
2022-09-25T13:17:02.623Z,74.49
2022-09-25T13:19:33.068Z,74.23
2022-09-25T13:22:05.821Z,75.08
2022-09-25T13:24:46.495Z,75.71
2022-09-25T13:27:19.856Z,75.76
2022-09-25T13:29:56.648Z,75.29
2022-09-25T13:32:29.001Z,75.67
2022-09-25T13:34:59.437Z,74.88
2022-09-25T13:37:32.505Z,75.42
2022-09-25T13:40:19.502Z,75.67
2022-09-25T13:42:47.945Z,76.07
2022-09-25T13:45:33.368Z,76.22
2022-09-25T13:48:07.602Z,77.16
2022-09-25T13:50:40.767Z,77.00
2022-09-25T13:53:20.422Z,77.00
2022-09-25T13:56:15.023Z,77.59
2022-09-25T13:59:03.069Z,77.74
2022-09-25T14:01:37.628Z,77.90
2022-09-25T14:04:18.430Z,78.12
2022-09-25T14:06:48.675Z,78.19
2022-09-25T14:09:20.047Z,78.71
2022-09-25T14:11:54.201Z,79.15
2022-09-25T14:14:31.427Z,79.04
2022-09-25T14:16:59.935Z,79.74
2022-09-25T14:19:31.415Z,79.41
2022-09-25T14:22:01.371Z,79.54
2022-09-25T14:24:31.620Z,79.45
2022-09-25T14:27:01.042Z,79.49
2022-09-25T14:29:32.896Z,80.31
2022-09-25T14:32:36.499Z,80.76
2022-09-25T14:35:18.475Z,80.30
2022-09-25T14:38:10.083Z,80.28
2022-09-25T14:40:50.477Z,81.82
2022-09-25T14:43:45.032Z,82.02
2022-09-25T14:46:20.010Z,82.39
2022-09-25T14:48:51.292Z,81.72
2022-09-25T14:51:25.658Z,81.34
2022-09-25T14:53:57.049Z,81.17
2022-09-25T14:56:27.656Z,81.12
2022-09-25T14:58:59.248Z,80.77
2022-09-25T15:01:31.019Z,80.15
2022-09-25T15:04:05.128Z,79.60
2022-09-25T15:06:35.139Z,79.51
2022-09-25T15:09:04.075Z,79.93
2022-09-25T15:11:43.377Z,79.28
2022-09-25T15:14:12.368Z,79.51
2022-09-25T15:16:58.380Z,79.93
2022-09-25T15:19:30.264Z,78.69
2022-09-25T15:21:58.066Z,78.72
2022-09-25T15:24:28.580Z,78.48
2022-09-25T15:27:03.686Z,78.53
2022-09-25T15:29:35.710Z,78.49
2022-09-25T15:32:03.907Z,77.97
2022-09-25T15:34:33.539Z,78.45
2022-09-25T15:37:20.890Z,78.63
2022-09-25T15:39:48.831Z,78.88
2022-09-25T15:42:17.749Z,79.03
2022-09-25T15:44:50.941Z,78.26
2022-09-25T15:47:56.750Z,78.60
2022-09-25T15:50:26.761Z,78.91
2022-09-25T15:52:57.373Z,78.35
2022-09-25T15:55:25.555Z,77.96
2022-09-25T15:57:56.560Z,78.55
2022-09-25T16:00:44.342Z,79.30
2022-09-25T16:03:37.439Z,78.01
2022-09-25T16:06:05.297Z,77.62
2022-09-25T16:08:36.243Z,77.40
2022-09-25T16:11:16.563Z,77.53
2022-09-25T16:13:49.017Z,77.74
2022-09-25T16:16:29.601Z,76.65
2022-09-25T16:18:58.896Z,76.23
2022-09-25T16:21:31.653Z,76.95
2022-09-25T16:24:01.871Z,77.61
2022-09-25T16:26:36.563Z,77.76
2022-09-25T16:29:18.118Z,76.41
2022-09-25T16:31:47.066Z,77.23
2022-09-25T16:34:23.829Z,77.04
2022-09-25T16:36:51.607Z,77.39
2022-09-25T16:39:28.923Z,77.81
2022-09-25T16:41:58.484Z,78.05
2022-09-25T16:44:39.381Z,77.67
2022-09-25T16:47:14.748Z,76.97
2022-09-25T16:49:45.175Z,79.24
2022-09-25T16:52:20.193Z,79.64
2022-09-25T16:54:53.093Z,80.23
2022-09-25T16:57:22.456Z,80.28
2022-09-25T16:59:52.456Z,80.33
2022-09-25T17:02:33.412Z,80.60
2022-09-25T17:05:03.586Z,80.56
2022-09-25T17:07:32.516Z,81.19
2022-09-25T17:10:01.418Z,82.12
2022-09-25T17:12:31.686Z,84.94
2022-09-25T17:15:00.759Z,84.28
2022-09-25T17:17:29.682Z,84.36
2022-09-25T17:19:57.387Z,85.63
2022-09-25T17:22:29.426Z,85.24
2022-09-25T17:25:01.879Z,84.98
2022-09-25T17:27:29.518Z,84.93
2022-09-25T17:29:57.157Z,85.21
2022-09-25T17:32:26.300Z,85.00
2022-09-25T17:34:57.493Z,85.03
2022-09-25T17:37:25.105Z,84.35
2022-09-25T17:39:52.760Z,84.21
2022-09-25T17:42:20.377Z,84.05
2022-09-25T17:44:49.587Z,84.05
2022-09-25T17:47:17.457Z,83.89
2022-09-25T17:49:48.484Z,83.91
2022-09-25T17:52:21.255Z,83.64
2022-09-25T17:54:49.171Z,83.52
2022-09-25T17:57:16.954Z,83.92
2022-09-25T17:59:44.835Z,82.95
2022-09-25T18:02:16.958Z,83.18
2022-09-25T18:04:46.047Z,83.80
2022-09-25T18:07:15.259Z,83.37
2022-09-25T18:09:42.890Z,84.21
2022-09-25T18:12:10.553Z,84.50
2022-09-25T18:14:38.235Z,84.29
2022-09-25T18:17:06.158Z,84.68
2022-09-25T18:19:51.315Z,84.06
2022-09-25T18:22:21.615Z,84.39
2022-09-25T18:24:52.833Z,84.09
2022-09-25T18:27:21.645Z,84.44
2022-09-25T18:29:49.341Z,83.96
2022-09-25T18:32:17.120Z,84.49
2022-09-25T18:34:44.851Z,84.29
2022-09-25T18:37:13.109Z,84.39
2022-09-25T18:39:42.969Z,84.37
2022-09-25T18:42:10.549Z,84.25
2022-09-25T18:44:42.624Z,85.08
2022-09-25T18:47:11.345Z,84.25
2022-09-25T18:49:38.999Z,84.47
2022-09-25T18:52:07.043Z,84.54
2022-09-25T18:54:34.804Z,84.98
2022-09-25T18:57:03.731Z,85.49
2022-09-25T18:59:31.389Z,85.30
2022-09-25T19:02:00.145Z,84.93
2022-09-25T19:04:28.672Z,84.94
2022-09-25T19:06:56.297Z,84.59
2022-09-25T19:09:24.976Z,84.96
2022-09-25T19:11:53.159Z,85.16
2022-09-25T19:14:22.253Z,85.03
2022-09-25T19:16:51.713Z,85.45
2022-09-25T19:19:19.772Z,85.66
2022-09-25T19:21:47.408Z,85.79
2022-09-25T19:24:18.153Z,85.94
2022-09-25T19:26:45.747Z,86.17
2022-09-25T19:29:13.599Z,86.41
2022-09-25T19:31:42.897Z,86.81
2022-09-25T19:34:10.506Z,87.78
2022-09-25T19:36:38.447Z,87.43
2022-09-25T19:39:06.454Z,86.95
2022-09-25T19:41:36.208Z,86.04
2022-09-25T19:44:12.283Z,86.17
2022-09-25T19:46:42.700Z,86.70
2022-09-25T19:49:10.550Z,87.14
2022-09-25T19:51:38.326Z,87.62
2022-09-25T19:54:07.618Z,87.82
2022-09-25T19:56:37.285Z,88.50
2022-09-25T19:59:05.477Z,89.06
2022-09-25T20:01:33.207Z,89.88
2022-09-25T20:04:06.597Z,90.11
2022-09-25T20:06:36.612Z,90.56
2022-09-25T20:09:05.410Z,90.59
2022-09-25T20:11:34.322Z,91.28
2022-09-25T20:14:03.600Z,91.79
2022-09-25T20:16:31.878Z,91.72
2022-09-25T20:19:03.214Z,91.96
2022-09-25T20:21:32.601Z,92.25
2022-09-25T20:24:02.564Z,92.40
2022-09-25T20:26:31.450Z,92.67
2022-09-25T20:29:01.118Z,92.93
2022-09-25T20:31:34.222Z,92.12
2022-09-25T20:34:03.252Z,92.18
2022-09-25T20:36:30.801Z,92.48
2022-09-25T20:38:58.811Z,92.55
2022-09-25T20:41:27.390Z,92.96
2022-09-25T20:43:57.245Z,93.40
2022-09-25T20:46:26.310Z,94.19
2022-09-25T20:48:57.367Z,94.64
2022-09-25T20:51:28.120Z,95.12
2022-09-25T20:53:57.628Z,95.64
2022-09-25T20:56:25.922Z,96.23
2022-09-25T20:58:55.138Z,96.55
2022-09-25T21:01:25.552Z,96.71
2022-09-25T21:03:54.128Z,96.92
2022-09-25T21:06:23.560Z,96.82
2022-09-25T21:08:54.350Z,96.83
2022-09-25T21:11:22.821Z,97.32
2022-09-25T21:13:52.205Z,97.80
2022-09-25T21:16:21.254Z,97.82
2022-09-25T21:18:53.274Z,98.21
2022-09-25T21:21:20.959Z,98.49
2022-09-25T21:23:50.312Z,98.60
2022-09-25T21:26:19.911Z,98.79
2022-09-25T21:28:55.027Z,98.87
2022-09-25T21:31:24.170Z,98.87
2022-09-25T21:33:52.890Z,98.89
2022-09-25T21:36:21.211Z,99.13
2022-09-25T21:38:50.043Z,99.23
2022-09-25T21:41:20.831Z,99.36
2022-09-25T21:43:49.091Z,99.81
2022-09-25T21:46:19.273Z,99.53
2022-09-25T21:48:49.181Z,99.71
2022-09-25T21:51:17.821Z,99.55
2022-09-25T21:53:45.744Z,99.88
2022-09-25T21:56:14.757Z,99.93
2022-09-25T21:58:44.182Z,100.00
2022-09-25T22:01:13.912Z,100.00
2022-09-25T22:03:45.639Z,100.00
2022-09-25T22:06:15.172Z,100.00
2022-09-25T22:08:47.971Z,100.00
2022-09-25T22:11:15.904Z,100.00
2022-09-25T22:13:46.729Z,100.00
2022-09-25T22:16:17.400Z,100.00
2022-09-25T22:18:46.571Z,100.00
2022-09-25T22:21:16.388Z,100.00
2022-09-25T22:23:44.192Z,100.00
2022-09-25T22:26:12.528Z,100.00
2022-09-25T22:28:40.473Z,100.00
2022-09-25T22:31:11.473Z,100.00
2022-09-25T22:33:39.311Z,100.00
2022-09-25T22:36:08.880Z,100.00
2022-09-25T22:38:37.781Z,100.00
2022-09-25T22:41:06.214Z,100.00
2022-09-25T22:43:33.944Z,100.00
2022-09-25T22:46:01.717Z,100.00
2022-09-25T22:48:31.140Z,100.00
2022-09-25T22:51:00.377Z,100.00
2022-09-25T22:53:30.434Z,100.00
2022-09-25T22:56:08.503Z,100.00
2022-09-25T22:58:36.271Z,100.00
2022-09-25T23:01:06.434Z,100.00
2022-09-25T23:03:35.391Z,100.00
2022-09-25T23:06:03.577Z,100.00
2022-09-25T23:08:31.835Z,100.00
2022-09-25T23:11:07.615Z,100.00
2022-09-25T23:13:36.229Z,100.00
2022-09-25T23:16:08.524Z,100.00
2022-09-25T23:18:38.162Z,100.00
2022-09-25T23:21:06.080Z,100.00
2022-09-25T23:23:33.798Z,100.00
2022-09-25T23:26:03.354Z,100.00
2022-09-25T23:28:33.398Z,100.00
2022-09-25T23:31:07.174Z,100.00
2022-09-25T23:33:35.376Z,100.00
2022-09-25T23:36:05.992Z,100.00
2022-09-25T23:38:34.094Z,100.00
2022-09-25T23:41:02.119Z,100.00
2022-09-25T23:43:30.045Z,100.00
2022-09-25T23:45:57.729Z,100.00
2022-09-25T23:48:25.327Z,100.00
2022-09-25T23:50:52.924Z,100.00
2022-09-25T23:53:21.918Z,100.00
2022-09-25T23:55:49.661Z,100.00
2022-09-25T23:58:18.016Z,100.00
